Pinson, TN

7:06 PM CDT on June 03, 2015 (GMT -0500)
Turner | | Change Station
CLOSE
Current Station
Airport
Location: Corinth,
Elevation: 427 ft
Nearby Weather Stations

Elev 427 ft 34.91 °N, 88.60 °W | Updated 11 minutes ago

Mostly Cloudy
Mostly Cloudy
72 °F
Feels Like 72 °F
N
7
Wind Variable Wind from NNW

Today
High -- | Low -- °F
--% Chance of Precip.
Yesterday
High -- | Low -- °F
Precip. -- in
5:40 AM 8:06 PM
Full, 98% visible
Pressure 29.97 in
Visibility 10.0 miles
Clouds Scattered Clouds 4200 ft
Dew Point 61 °F
Humidity 69%
Rainfall 0.00 in
Snow Depth Not available.
UV 1 out of 12
Pollen 5.50 out of 12
Air Quality Not available.
Flu Activity Sporadic
METAR KCRX 032355Z AUTO 34006KT 10SM SCT042 22/16 A2997 RMK AO2

More Conditions Fewer Conditions

Pressure 29.97 in
Visibility 10.0 miles
Clouds Scattered Clouds 4200 ft
Dew Point 61 °F
Humidity 69%
Rainfall 0.00 in
Snow Depth Not available.
UV 1 out of 12
Pollen 5.50 out of 12
Air Quality Not available.
Flu Activity Sporadic
METAR KCRX 032355Z AUTO 34006KT 10SM SCT042 22/16 A2997 RMK AO2

More Conditions Fewer Conditions

10-Day Weather Forecast

×

Almanac

Astronomy

Jun. 03, 2015 Rise Set
Actual Time
Civil Twilight
Nautical Twilight
Astronomical Twilight
Moon
Length of Visible Light
Length of Day
Tomorrow will be .
, % of the Moon is Illuminated

Today's Extremes

State Highs State Lows

Community

WunderPhotos

Upload Photos

1,826,306 photos uploaded!

WunderBlogs® & News

Nearby

Air Quality

  Air Quality AQ Index Pollutant
Not available.

Snow Depth

Station Depth Elevation

Earthquake Activity

City Distance Mag. Time & Date
Minimum magnitude displayed is 2.5.

Coastal Water Temperatures

Place Temperature

Stations

Nearby Weather Stations

Station Location Temp. Windchill Dew Point Humidity Wind Precip. Elev Updated Type